Time;durP1;ratioP1;P1;durP2;ratioP2;P2;SDS_P1;SDS_P2;PMS_P1;PMS_P2;Temp;Humidity;BMP_temperature;BMP_pressure;BME280_temperature;BME280_humidity;BME280_pressure;Samples;Min_cycle;Max_cycle;Signal;HPM_P1;HPM_P2
2023/08/16 00:01:43;;;;;;;10.40;6.20;;;;;;;28.24;60.10;101887.02;107105;1254;25331;-48
2023/08/16 00:04:10;;;;;;;8.20;6.10;;;;;;;28.24;60.16;101884.52;107193;1264;25313;-49
2023/08/16 00:06:42;;;;;;;8.40;6.00;;;;;;;28.23;60.20;101884.80;107075;1259;24243;-49
2023/08/16 00:09:09;;;;;;;7.00;6.40;;;;;;;28.21;60.37;101883.15;106926;1256;22566;-49
2023/08/16 00:11:36;;;;;;;7.00;5.90;;;;;;;28.19;60.29;101885.05;107119;1255;25439;-49
2023/08/16 00:14:03;;;;;;;7.10;6.40;;;;;;;28.18;60.29;101888.72;107136;1254;25356;-48
2023/08/16 00:16:30;;;;;;;6.70;5.90;;;;;;;28.16;60.40;101891.39;106844;1261;25405;-49
2023/08/16 00:18:58;;;;;;;9.40;6.00;;;;;;;28.15;60.33;101892.68;107077;1264;25353;-49
2023/08/16 00:21:25;;;;;;;7.20;6.50;;;;;;;28.15;60.41;101891.70;107168;1258;25381;-49
2023/08/16 00:23:52;;;;;;;7.80;7.00;;;;;;;28.15;60.38;101900.19;107112;1263;25337;-49
2023/08/16 00:26:19;;;;;;;6.90;5.60;;;;;;;28.16;60.27;101897.27;107088;1261;25324;-49
2023/08/16 00:28:48;;;;;;;8.00;6.10;;;;;;;28.15;60.41;101899.16;107106;1254;25483;-50
2023/08/16 00:31:15;;;;;;;10.70;6.60;;;;;;;28.13;60.50;101897.48;107200;1260;22520;-50
2023/08/16 00:33:42;;;;;;;6.70;5.90;;;;;;;28.12;60.57;101894.92;106656;1254;389032;-50
2023/08/16 00:36:09;;;;;;;8.20;6.20;;;;;;;28.11;60.48;101896.02;106937;1254;25359;-50
2023/08/16 00:38:42;;;;;;;9.40;6.60;;;;;;;28.10;60.59;101895.44;106943;1254;24205;-50
2023/08/16 00:41:10;;;;;;;8.80;6.20;;;;;;;28.08;60.72;101895.05;107008;1266;25468;-51
2023/08/16 00:43:37;;;;;;;7.20;6.10;;;;;;;28.06;60.88;101890.20;107112;1250;24240;-51
2023/08/16 00:46:06;;;;;;;7.20;6.30;;;;;;;28.04;60.94;101890.70;107049;1250;22782;-48
2023/08/16 00:48:33;;;;;;;7.00;6.30;;;;;;;28.02;61.09;101889.24;107126;1250;23082;-48
2023/08/16 00:51:01;;;;;;;7.00;6.40;;;;;;;28.01;61.10;101891.48;107144;1253;25430;-49
2023/08/16 00:53:29;;;;;;;8.10;6.30;;;;;;;28.00;61.12;101893.89;107086;1257;23253;-50
2023/08/16 00:55:57;;;;;;;10.40;6.60;;;;;;;28.01;61.06;101895.98;106826;1274;22580;-49
2023/08/16 00:58:25;;;;;;;7.20;6.00;;;;;;;28.00;60.93;101894.05;107188;1255;22530;-48
2023/08/16 01:00:52;;;;;;;9.30;6.50;;;;;;;28.00;60.89;101899.58;107042;1254;25347;-48
2023/08/16 01:03:19;;;;;;;8.70;6.60;;;;;;;27.98;60.83;101898.48;107064;1259;25440;-49
2023/08/16 01:05:46;;;;;;;8.00;6.50;;;;;;;27.97;60.77;101901.76;107071;1257;25362;-48
2023/08/16 01:08:13;;;;;;;9.20;6.50;;;;;;;27.97;60.59;101902.19;107028;1257;25366;-49
2023/08/16 01:11:00;;;;;;;7.90;7.20;;;;;;;27.95;60.67;101902.98;107129;1260;25439;-48
2023/08/16 01:13:34;;;;;;;7.30;6.50;;;;;;;27.96;60.71;101907.94;106868;1257;25331;-49
2023/08/16 01:16:07;;;;;;;8.00;6.40;;;;;;;27.97;60.57;101906.24;107124;1265;25346;-49
2023/08/16 01:18:39;;;;;;;9.40;6.90;;;;;;;27.97;60.52;101912.31;106768;1267;25350;-49
2023/08/16 01:21:07;;;;;;;10.00;7.10;;;;;;;27.96;60.56;101915.77;106813;1259;24218;-49
2023/08/16 01:23:54;;;;;;;8.70;6.80;;;;;;;27.95;60.56;101917.98;107082;1261;25356;-49
2023/08/16 01:26:37;;;;;;;8.50;6.70;;;;;;;27.94;60.55;101921.27;107059;1263;25356;-49
2023/08/16 01:29:06;;;;;;;6.90;6.30;;;;;;;27.92;60.42;101922.46;107171;1268;22529;-49
2023/08/16 01:31:33;;;;;;;9.30;6.40;;;;;;;27.92;60.51;101925.50;107008;1263;25430;-49
2023/08/16 01:34:00;;;;;;;8.30;6.50;;;;;;;27.92;60.32;101926.77;107081;1260;25319;-49
2023/08/16 01:36:27;;;;;;;8.90;6.50;;;;;;;27.91;60.31;101926.15;107064;1263;25586;-49
2023/08/16 01:38:58;;;;;;;8.00;7.00;;;;;;;27.90;60.38;101924.04;107156;1263;25344;-49
2023/08/16 01:41:38;;;;;;;7.70;6.20;;;;;;;27.91;60.44;101927.02;106946;1257;25303;-49
2023/08/16 01:44:07;;;;;;;10.80;7.20;;;;;;;27.91;60.59;101927.94;107089;1262;24550;-49
2023/08/16 01:46:34;;;;;;;8.30;6.40;;;;;;;27.90;60.46;101925.83;107015;1257;25462;-49
2023/08/16 01:49:02;;;;;;;8.70;7.10;;;;;;;27.91;60.47;101926.16;106706;1262;25439;-49
2023/08/16 01:51:29;;;;;;;7.60;6.50;;;;;;;27.89;60.47;101923.05;107019;1260;25331;-48
2023/08/16 01:53:56;;;;;;;11.20;6.60;;;;;;;27.88;60.41;101919.09;107016;1256;25334;-49
2023/08/16 01:56:23;;;;;;;8.30;6.30;;;;;;;27.87;60.24;101917.00;107153;1258;25399;-49
2023/08/16 01:58:50;;;;;;;9.20;7.30;;;;;;;27.86;60.28;101916.52;106889;1267;23191;-49
2023/08/16 02:01:17;;;;;;;9.40;6.70;;;;;;;27.84;60.19;101912.21;107013;1254;25383;-49
2023/08/16 02:03:44;;;;;;;10.00;7.20;;;;;;;27.83;60.20;101912.14;107137;1254;25322;-49
2023/08/16 02:06:11;;;;;;;7.70;6.70;;;;;;;27.81;60.25;101914.39;107116;1263;25340;-49
2023/08/16 02:08:39;;;;;;;8.80;6.70;;;;;;;27.82;60.33;101914.91;106841;1270;25393;-49
2023/08/16 02:11:06;;;;;;;7.50;6.80;;;;;;;27.82;60.26;101915.45;107137;1252;25331;-49
2023/08/16 02:13:33;;;;;;;8.00;6.80;;;;;;;27.83;60.44;101914.98;107109;1264;25404;-49
2023/08/16 02:16:00;;;;;;;10.60;7.30;;;;;;;27.84;60.32;101920.29;107124;1257;25331;-49
2023/08/16 02:18:29;;;;;;;8.30;7.20;;;;;;;27.83;60.43;101923.38;107103;1260;22571;-49
2023/08/16 02:20:56;;;;;;;8.00;7.20;;;;;;;27.82;60.42;101924.13;106883;1267;25335;-49
2023/08/16 02:23:23;;;;;;;12.40;7.90;;;;;;;27.82;60.51;101927.75;107031;1256;25356;-49
2023/08/16 02:25:50;;;;;;;8.60;7.00;;;;;;;27.81;60.57;101931.88;107069;1251;25220;-49
2023/08/16 02:28:17;;;;;;;7.30;6.60;;;;;;;27.81;60.53;101936.70;107055;1263;25477;-49
2023/08/16 02:30:44;;;;;;;8.40;6.60;;;;;;;27.80;60.71;101940.17;107079;1254;25347;-49
2023/08/16 02:33:11;;;;;;;10.70;6.60;;;;;;;27.80;60.72;101943.42;107099;1254;25385;-49
2023/08/16 02:35:38;;;;;;;8.00;7.20;;;;;;;27.79;60.92;101947.06;107060;1251;25333;-49
2023/08/16 02:38:05;;;;;;;7.50;6.50;;;;;;;27.77;61.00;101949.00;107099;1257;25328;-49
2023/08/16 02:40:32;;;;;;;7.70;6.90;;;;;;;27.75;61.18;101950.58;106827;1257;25331;-48
2023/08/16 02:42:59;;;;;;;7.70;6.60;;;;;;;27.72;61.24;101950.59;106987;1254;25331;-49
2023/08/16 02:45:26;;;;;;;12.20;7.30;;;;;;;27.69;61.27;101952.76;107080;1251;24040;-49
2023/08/16 02:47:53;;;;;;;15.70;7.90;;;;;;;27.68;61.23;101953.56;106781;1256;25366;-48
2023/08/16 02:50:23;;;;;;;8.80;7.00;;;;;;;27.66;61.11;101952.81;107052;1254;25359;-48
2023/08/16 02:52:50;;;;;;;12.70;7.80;;;;;;;27.64;61.15;101953.50;107083;1266;25359;-48
2023/08/16 02:55:17;;;;;;;10.40;7.50;;;;;;;27.62;60.81;101951.71;107069;1253;25478;-49
2023/08/16 02:57:44;;;;;;;9.10;7.20;;;;;;;27.59;60.76;101953.33;107102;1254;25359;-48
2023/08/16 03:00:13;;;;;;;9.80;7.20;;;;;;;27.58;60.54;101947.73;107073;1262;25485;-48
2023/08/16 03:02:39;;;;;;;11.40;7.70;;;;;;;27.56;60.17;101951.08;107130;1267;24211;-49
2023/08/16 03:05:07;;;;;;;10.50;7.60;;;;;;;27.55;60.40;101949.92;106818;1272;25356;-48
2023/08/16 03:07:34;;;;;;;11.10;7.30;;;;;;;27.55;60.75;101952.42;107123;1260;25331;-49
2023/08/16 03:10:01;;;;;;;10.00;7.50;;;;;;;27.55;61.11;101952.56;107123;1254;25392;-48
2023/08/16 03:12:28;;;;;;;11.50;8.10;;;;;;;27.55;61.24;101949.23;107151;1257;25331;-48
2023/08/16 03:14:56;;;;;;;9.70;7.60;;;;;;;27.53;61.47;101948.27;107171;1254;25516;-48
2023/08/16 03:17:24;;;;;;;10.20;7.70;;;;;;;27.51;61.41;101950.58;106811;1275;25350;-48
2023/08/16 03:19:51;;;;;;;11.20;7.80;;;;;;;27.50;61.33;101948.89;107073;1263;24228;-48
2023/08/16 03:22:19;;;;;;;11.50;7.40;;;;;;;27.48;61.29;101947.23;107054;1251;25347;-48
2023/08/16 03:24:49;;;;;;;9.90;7.50;;;;;;;27.46;61.41;101947.20;107037;1263;22544;-49
2023/08/16 03:27:17;;;;;;;10.40;7.30;;;;;;;27.47;61.39;101949.84;106929;1269;22527;-48
2023/08/16 03:29:44;;;;;;;8.90;7.40;;;;;;;27.47;61.48;101950.38;106810;1267;25321;-49
2023/08/16 03:32:11;;;;;;;11.10;6.70;;;;;;;27.45;61.65;101949.73;106842;1263;25408;-48
2023/08/16 03:34:38;;;;;;;8.70;7.10;;;;;;;27.45;61.34;101950.88;107023;1257;25331;-48
2023/08/16 03:37:05;;;;;;;12.00;7.50;;;;;;;27.44;61.14;101951.33;107050;1263;25404;-49
2023/08/16 03:39:33;;;;;;;8.60;7.30;;;;;;;27.43;60.93;101947.63;107121;1252;22526;-48
2023/08/16 03:42:00;;;;;;;7.80;7.00;;;;;;;27.43;60.67;101952.23;107178;1266;25395;-48
2023/08/16 03:44:29;;;;;;;9.80;7.50;;;;;;;27.43;60.71;101951.16;106891;1262;24307;-49
2023/08/16 03:46:57;;;;;;;9.30;7.70;;;;;;;27.43;60.58;101948.32;106934;1257;23041;-48
2023/08/16 03:49:24;;;;;;;11.10;7.50;;;;;;;27.44;60.56;101949.85;107110;1254;25356;-49
2023/08/16 03:51:51;;;;;;;9.00;7.10;;;;;;;27.45;60.55;101951.58;107231;1256;25439;-49
2023/08/16 03:54:18;;;;;;;8.10;7.10;;;;;;;27.45;60.61;101949.80;107053;1256;25369;-49
2023/08/16 03:56:45;;;;;;;13.20;7.40;;;;;;;27.45;60.60;101949.39;107245;1263;25334;-48
2023/08/16 03:59:13;;;;;;;9.40;7.40;;;;;;;27.46;60.80;101950.27;107169;1261;25350;-49
2023/08/16 04:01:40;;;;;;;9.90;7.10;;;;;;;27.47;60.77;101949.99;107072;1260;25350;-48
2023/08/16 04:04:07;;;;;;;8.50;7.40;;;;;;;27.48;60.73;101949.53;107188;1251;25331;-49
2023/08/16 04:06:34;;;;;;;8.80;6.80;;;;;;;27.50;60.78;101949.05;107174;1261;25376;-49
2023/08/16 04:09:02;;;;;;;7.60;6.50;;;;;;;27.52;60.61;101946.39;107157;1253;25395;-48
2023/08/16 04:11:29;;;;;;;10.60;7.80;;;;;;;27.54;60.78;101947.48;107151;1250;22561;-48
2023/08/16 04:13:56;;;;;;;7.70;6.90;;;;;;;27.55;60.72;101944.54;107154;1260;25331;-50
2023/08/16 04:16:23;;;;;;;7.70;6.90;;;;;;;27.56;60.72;101939.82;106747;1257;25368;-51
2023/08/16 04:18:53;;;;;;;8.00;6.90;;;;;;;27.57;60.61;101938.17;106688;1272;25474;-50
2023/08/16 04:21:20;;;;;;;13.80;7.50;;;;;;;27.58;60.68;101936.67;106886;1257;25468;-51
2023/08/16 04:23:47;;;;;;;8.40;6.90;;;;;;;27.60;60.60;101930.48;106903;1256;25398;-53
2023/08/16 04:26:14;;;;;;;8.10;7.20;;;;;;;27.61;60.56;101937.15;107050;1257;25369;-50
2023/08/16 04:28:41;;;;;;;8.60;7.00;;;;;;;27.63;60.86;101936.84;107126;1260;25329;-49
2023/08/16 04:31:08;;;;;;;8.50;6.90;;;;;;;27.65;60.72;101938.48;107125;1263;24179;-49
2023/08/16 04:33:35;;;;;;;7.20;6.60;;;;;;;27.67;60.58;101943.66;107070;1260;25385;-49
2023/08/16 04:36:03;;;;;;;7.80;6.90;;;;;;;27.69;60.64;101938.90;107131;1263;25367;-49
2023/08/16 04:38:30;;;;;;;7.80;6.70;;;;;;;27.70;60.70;101943.29;107125;1257;25408;-49
2023/08/16 04:40:57;;;;;;;7.70;6.30;;;;;;;27.71;60.52;101939.60;107078;1256;22534;-49
2023/08/16 04:43:24;;;;;;;7.80;6.50;;;;;;;27.73;60.45;101946.38;107077;1253;22531;-49
2023/08/16 04:45:51;;;;;;;8.60;7.10;;;;;;;27.74;60.31;101947.92;107040;1264;22753;-49
2023/08/16 04:48:18;;;;;;;9.90;6.90;;;;;;;27.77;60.45;101946.86;107102;1263;25389;-49
2023/08/16 04:50:45;;;;;;;8.20;6.60;;;;;;;27.77;60.18;101949.51;107088;1258;25472;-49
2023/08/16 04:53:12;;;;;;;6.70;6.10;;;;;;;27.77;59.93;101951.09;107049;1254;22540;-49
2023/08/16 04:55:41;;;;;;;6.60;5.90;;;;;;;27.77;59.90;101944.54;107184;1263;25379;-49
2023/08/16 04:58:09;;;;;;;6.60;6.00;;;;;;;27.80;59.70;101951.73;107161;1260;25407;-49
2023/08/16 05:00:40;;;;;;;8.20;6.50;;;;;;;27.83;59.65;101952.09;107107;1260;22533;-49
2023/08/16 05:03:07;;;;;;;7.70;6.10;;;;;;;27.86;59.57;101950.79;106906;1256;25322;-48
2023/08/16 05:05:34;;;;;;;8.00;6.60;;;;;;;27.88;59.48;101953.08;107090;1257;25331;-49
2023/08/16 05:08:02;;;;;;;6.70;6.10;;;;;;;27.89;59.28;101955.37;106640;1274;25359;-49
2023/08/16 05:10:30;;;;;;;8.10;6.70;;;;;;;27.89;59.16;101956.23;106780;1270;25526;-49
2023/08/16 05:12:57;;;;;;;7.50;6.80;;;;;;;27.90;59.03;101953.99;107074;1257;25341;-49
2023/08/16 05:15:24;;;;;;;9.70;6.60;;;;;;;27.93;59.03;101955.92;107188;1256;25426;-49
2023/08/16 05:17:51;;;;;;;8.50;7.30;;;;;;;27.94;58.83;101959.07;106998;1255;25356;-49
2023/08/16 05:20:19;;;;;;;7.80;6.80;;;;;;;27.95;58.65;101955.98;107233;1263;22531;-49
2023/08/16 05:22:46;;;;;;;9.70;7.00;;;;;;;27.98;58.89;101952.91;107167;1266;25149;-49
2023/08/16 05:25:13;;;;;;;8.20;6.90;;;;;;;27.99;58.85;101951.02;107044;1254;25329;-49
2023/08/16 05:27:40;;;;;;;7.70;7.00;;;;;;;28.01;58.73;101951.59;107037;1260;25309;-49
2023/08/16 05:30:07;;;;;;;7.90;6.70;;;;;;;28.03;58.56;101951.30;107152;1254;22870;-49
2023/08/16 05:32:35;;;;;;;9.20;7.20;;;;;;;28.04;58.84;101953.90;107097;1256;25349;-49
2023/08/16 05:35:03;;;;;;;9.60;7.40;;;;;;;28.07;58.61;101957.23;107256;1251;25399;-49
2023/08/16 05:37:30;;;;;;;9.50;7.60;;;;;;;28.08;58.62;101959.27;106906;1256;22588;-49
2023/08/16 05:39:57;;;;;;;7.60;6.80;;;;;;;28.13;58.57;101958.02;106882;1257;25407;-49
2023/08/16 05:42:26;;;;;;;8.60;6.70;;;;;;;28.18;58.31;101960.27;107181;1251;25331;-49
2023/08/16 05:44:53;;;;;;;8.60;6.70;;;;;;;28.23;57.88;101960.77;107033;1254;25327;-49
2023/08/16 05:47:20;;;;;;;8.20;6.90;;;;;;;28.29;57.69;101963.71;107069;1263;25341;-49
2023/08/16 05:49:47;;;;;;;8.40;6.70;;;;;;;28.37;57.61;101962.39;107107;1251;25404;-49
2023/08/16 05:52:14;;;;;;;8.10;6.80;;;;;;;28.47;57.29;101958.39;107168;1250;25350;-49
2023/08/16 05:54:41;;;;;;;8.90;6.30;;;;;;;28.57;56.92;101960.09;107141;1254;25394;-49
2023/08/16 05:57:08;;;;;;;8.40;7.10;;;;;;;28.67;56.46;101957.13;106821;1266;25359;-49
2023/08/16 05:59:35;;;;;;;9.70;6.60;;;;;;;28.75;56.07;101957.81;106927;1257;25359;-49
2023/08/16 06:02:02;;;;;;;7.90;6.40;;;;;;;28.77;55.72;101960.27;106864;1259;25497;-49
2023/08/16 06:04:29;;;;;;;9.40;6.60;;;;;;;28.83;55.70;101965.20;106868;1254;25352;-49
2023/08/16 06:06:56;;;;;;;8.90;7.00;;;;;;;28.89;55.91;101963.60;106886;1259;25385;-49
2023/08/16 06:09:24;;;;;;;12.90;7.00;;;;;;;28.95;55.94;101966.30;106779;1259;25383;-49
2023/08/16 06:11:50;;;;;;;9.50;6.80;;;;;;;29.04;55.93;101967.63;107083;1259;22653;-49
2023/08/16 06:14:17;;;;;;;7.20;6.50;;;;;;;29.10;55.29;101969.42;107188;1256;25329;-49
2023/08/16 06:16:45;;;;;;;8.80;6.60;;;;;;;29.15;55.15;101969.59;106889;1268;25398;-49
2023/08/16 06:19:13;;;;;;;8.00;6.60;;;;;;;29.19;55.05;101963.40;107146;1260;22532;-49
2023/08/16 06:21:40;;;;;;;8.90;6.70;;;;;;;29.22;54.80;101963.89;107071;1254;25366;-49
2023/08/16 06:24:08;;;;;;;10.00;6.90;;;;;;;29.21;54.66;101971.10;107103;1254;25478;-49
2023/08/16 06:26:35;;;;;;;11.80;7.60;;;;;;;29.07;55.02;101972.38;107177;1260;23890;-49
2023/08/16 06:29:02;;;;;;;7.10;6.40;;;;;;;29.02;55.41;101976.77;107140;1257;25408;-49
2023/08/16 06:31:29;;;;;;;11.80;10.60;;;;;;;29.03;55.36;101983.98;107193;1257;25507;-49
2023/08/16 06:33:56;;;;;;;8.10;7.40;;;;;;;29.04;55.27;101984.02;107240;1254;25458;-49
2023/08/16 06:36:24;;;;;;;8.40;6.60;;;;;;;29.06;55.04;101985.68;107118;1256;25350;-49
2023/08/16 06:38:51;;;;;;;8.10;6.90;;;;;;;29.08;54.96;101984.30;107197;1262;25499;-49
2023/08/16 06:41:18;;;;;;;8.70;7.40;;;;;;;29.09;55.05;101984.34;107018;1257;25439;-50
2023/08/16 06:43:46;;;;;;;8.00;6.90;;;;;;;29.14;54.96;101980.60;107076;1250;23292;-49
2023/08/16 06:46:13;;;;;;;7.50;6.30;;;;;;;29.16;54.71;101981.68;107054;1254;22656;-49
2023/08/16 06:48:40;;;;;;;7.20;6.60;;;;;;;29.17;54.68;101983.36;107179;1251;25331;-49
2023/08/16 06:51:06;;;;;;;9.00;6.50;;;;;;;29.18;54.51;101980.98;107042;1259;25328;-49
2023/08/16 06:53:33;;;;;;;8.30;7.40;;;;;;;29.19;54.64;101985.01;106911;1260;24034;-48
2023/08/16 06:56:01;;;;;;;8.10;6.50;;;;;;;29.22;54.81;101982.84;106771;1266;25376;-49
2023/08/16 06:58:28;;;;;;;8.90;6.60;;;;;;;29.23;54.85;101979.29;107158;1267;25359;-49
2023/08/16 07:00:55;;;;;;;9.50;7.60;;;;;;;29.27;54.81;101981.09;107218;1263;25471;-48
2023/08/16 07:03:23;;;;;;;6.80;6.20;;;;;;;29.32;54.66;101978.97;107143;1256;25359;-48
2023/08/16 07:05:51;;;;;;;6.90;6.10;;;;;;;29.37;54.55;101985.52;107117;1253;25331;-48
2023/08/16 07:08:18;;;;;;;9.10;6.20;;;;;;;29.43;54.53;101986.09;106996;1270;25359;-49
2023/08/16 07:10:45;;;;;;;9.40;6.50;;;;;;;29.51;54.23;101981.32;107234;1254;25493;-49
2023/08/16 07:13:12;;;;;;;7.90;6.40;;;;;;;29.58;54.03;101986.09;107156;1264;25340;-48
2023/08/16 07:15:39;;;;;;;7.60;5.90;;;;;;;29.67;53.79;101982.26;107086;1256;25471;-48
2023/08/16 07:18:06;;;;;;;9.30;6.10;;;;;;;29.81;53.57;101985.40;106864;1266;25356;-49
2023/08/16 07:20:33;;;;;;;6.20;5.50;;;;;;;29.97;52.83;101981.70;106825;1270;25356;-48
2023/08/16 07:23:01;;;;;;;6.10;5.50;;;;;;;30.19;52.21;101980.06;107083;1258;25328;-48
2023/08/16 07:25:28;;;;;;;8.30;6.50;;;;;;;30.41;51.48;101976.16;107157;1255;25405;-49
2023/08/16 07:27:55;;;;;;;12.60;9.60;;;;;;;30.67;50.66;101981.48;106996;1260;25398;-48
2023/08/16 07:30:22;;;;;;;8.30;6.10;;;;;;;30.89;50.09;101980.55;107058;1263;25408;-49
2023/08/16 07:32:49;;;;;;;6.40;5.70;;;;;;;31.05;49.45;101985.41;107134;1260;22646;-48
2023/08/16 07:35:16;;;;;;;9.00;5.80;;;;;;;31.09;49.11;101991.36;107170;1257;25330;-49
2023/08/16 07:37:44;;;;;;;7.50;6.80;;;;;;;31.09;49.00;101991.48;107112;1250;25404;-48
2023/08/16 07:40:11;;;;;;;6.70;5.80;;;;;;;31.26;48.47;101995.33;107063;1261;25380;-49
2023/08/16 07:42:38;;;;;;;5.90;5.20;;;;;;;31.29;48.28;101996.16;107075;1264;25408;-48
2023/08/16 07:45:06;;;;;;;9.00;6.00;;;;;;;31.24;47.84;102000.77;107019;1254;25305;-49
2023/08/16 07:47:33;;;;;;;6.30;5.50;;;;;;;31.14;48.07;102000.73;107067;1250;22645;-48
2023/08/16 07:50:00;;;;;;;6.10;5.50;;;;;;;30.94;48.32;102001.34;107114;1263;25443;-49
2023/08/16 07:52:27;;;;;;;6.20;5.30;;;;;;;30.71;48.76;101998.89;107124;1254;25369;-50
2023/08/16 07:54:55;;;;;;;6.90;5.20;;;;;;;30.61;48.96;101996.16;107081;1254;25356;-50
2023/08/16 07:57:23;;;;;;;8.00;5.50;;;;;;;30.55;49.35;101997.20;106875;1266;25268;-52
2023/08/16 07:59:51;;;;;;;8.90;5.60;;;;;;;30.66;49.06;101996.64;107023;1267;25478;-50
2023/08/16 08:02:18;;;;;;;7.30;5.50;;;;;;;30.69;49.20;101997.25;107051;1263;25386;-49
2023/08/16 08:04:45;;;;;;;7.60;5.80;;;;;;;30.66;48.84;101994.06;106889;1254;25484;-50
2023/08/16 08:07:13;;;;;;;6.30;5.60;;;;;;;30.63;49.18;101994.20;107021;1257;25393;-49
2023/08/16 08:09:40;;;;;;;8.70;6.00;;;;;;;30.59;49.45;101991.27;106890;1255;22522;-49
2023/08/16 08:12:07;;;;;;;6.90;5.70;;;;;;;30.59;49.45;101993.46;106818;1263;25331;-49
2023/08/16 08:14:34;;;;;;;5.90;5.40;;;;;;;30.61;49.59;101995.40;106943;1257;25346;-49
2023/08/16 08:17:01;;;;;;;6.40;5.60;;;;;;;30.66;49.38;101996.08;107090;1257;25322;-49
2023/08/16 08:19:28;;;;;;;11.40;10.40;;;;;;;30.70;49.08;101998.06;107126;1263;25395;-50
2023/08/16 08:21:56;;;;;;;6.90;6.20;;;;;;;30.74;49.20;102001.81;107129;1254;25328;-49
2023/08/16 08:24:23;;;;;;;6.00;5.40;;;;;;;30.81;49.01;101995.48;107103;1254;25469;-49
2023/08/16 08:26:50;;;;;;;6.40;5.40;;;;;;;30.90;48.48;102000.43;107072;1254;25343;-49
2023/08/16 08:29:18;;;;;;;5.40;4.90;;;;;;;30.94;48.25;101997.00;107012;1256;25407;-49
2023/08/16 08:31:45;;;;;;;5.90;5.40;;;;;;;30.98;48.00;101995.00;107101;1257;25379;-49
2023/08/16 08:34:14;;;;;;;5.50;5.00;;;;;;;31.03;47.76;101995.45;107124;1251;25480;-49
2023/08/16 08:36:41;;;;;;;5.90;5.40;;;;;;;31.09;47.15;101998.33;106943;1263;25401;-49
2023/08/16 08:39:08;;;;;;;5.50;5.00;;;;;;;31.12;46.74;101996.80;107201;1263;25337;-49
2023/08/16 08:41:35;;;;;;;7.80;7.20;;;;;;;31.13;46.78;101994.77;107071;1256;25359;-50
2023/08/16 08:44:16;;;;;;;6.00;5.20;;;;;;;31.14;46.57;101993.00;107080;1263;25384;-48
2023/08/16 08:46:44;;;;;;;5.30;4.70;;;;;;;31.17;46.49;102000.48;107119;1251;22522;-50
2023/08/16 08:49:11;;;;;;;8.40;5.80;;;;;;;31.21;46.56;102001.58;107023;1263;25331;-49
2023/08/16 08:51:38;;;;;;;5.20;4.70;;;;;;;31.27;46.43;101999.94;107130;1257;25359;-49
2023/08/16 08:54:05;;;;;;;5.80;5.10;;;;;;;31.32;46.42;101997.30;106827;1267;25408;-49
2023/08/16 08:56:32;;;;;;;6.30;5.70;;;;;;;31.34;45.96;101994.41;107128;1254;25333;-49
2023/08/16 08:59:01;;;;;;;5.10;4.60;;;;;;;31.38;46.01;101991.64;107064;1256;25408;-50
2023/08/16 09:01:43;;;;;;;5.20;4.70;;;;;;;31.43;45.92;101986.18;107183;1257;23865;-49
2023/08/16 09:04:10;;;;;;;7.00;5.30;;;;;;;31.48;45.51;101985.48;107055;1259;25245;-50
2023/08/16 09:06:38;;;;;;;5.20;4.80;;;;;;;31.52;44.97;101984.64;107075;1267;25331;-48
2023/08/16 09:09:07;;;;;;;7.40;4.90;;;;;;;31.53;44.39;101981.07;107098;1257;25322;-49
2023/08/16 09:11:34;;;;;;;4.80;4.30;;;;;;;31.53;44.25;101978.75;106905;1272;25331;-49
2023/08/16 09:14:02;;;;;;;5.10;4.60;;;;;;;31.56;44.34;101971.11;107143;1263;25408;-49
2023/08/16 09:16:29;;;;;;;5.90;4.60;;;;;;;31.61;44.08;101972.63;107148;1254;25359;-49
2023/08/16 09:18:57;;;;;;;4.90;4.50;;;;;;;31.64;44.05;101972.71;107026;1257;25478;-48
2023/08/16 09:21:28;;;;;;;6.60;5.10;;;;;;;31.68;43.87;101975.60;106839;1274;25319;-49
2023/08/16 09:24:00;;;;;;;5.80;4.50;;;;;;;31.73;43.96;101975.27;107088;1263;22522;-49
2023/08/16 09:26:27;;;;;;;5.50;4.60;;;;;;;31.80;43.69;101972.67;106833;1266;25356;-50
2023/08/16 09:29:02;;;;;;;5.20;4.80;;;;;;;31.87;43.37;101972.21;107159;1263;25327;-49
2023/08/16 09:31:30;;;;;;;4.90;4.40;;;;;;;31.92;42.89;101973.67;107143;1263;22624;-50
2023/08/16 09:34:01;;;;;;;5.10;4.60;;;;;;;31.98;42.63;101971.95;107150;1256;22638;-49
2023/08/16 09:36:34;;;;;;;5.40;4.90;;;;;;;32.03;42.67;101973.27;106876;1266;25343;-50
2023/08/16 09:39:05;;;;;;;4.90;4.50;;;;;;;32.06;42.56;101969.30;106707;1261;25474;-50
2023/08/16 09:41:32;;;;;;;5.60;4.90;;;;;;;32.11;42.51;101975.59;107081;1261;25439;-49
2023/08/16 09:44:05;;;;;;;6.60;5.00;;;;;;;32.15;42.31;101976.80;107106;1254;25359;-49
2023/08/16 09:46:38;;;;;;;7.80;5.10;;;;;;;32.19;42.28;101976.23;106841;1259;25358;-49
2023/08/16 09:49:25;;;;;;;4.90;4.40;;;;;;;32.23;42.07;101981.05;106826;1259;25236;-49
2023/08/16 09:51:52;;;;;;;5.10;4.60;;;;;;;32.27;42.03;101977.84;106432;1278;25442;-49
2023/08/16 09:54:22;;;;;;;4.50;4.10;;;;;;;32.31;41.69;101975.31;106718;1277;25337;-49
2023/08/16 09:56:50;;;;;;;4.80;4.40;;;;;;;32.35;41.63;101973.48;106798;1270;25411;-49
2023/08/16 09:59:20;;;;;;;5.20;4.70;;;;;;;32.40;41.38;101969.20;106767;1263;22628;-49
2023/08/16 10:01:49;;;;;;;4.70;4.10;;;;;;;32.43;41.12;101972.21;106853;1273;22536;-49
2023/08/16 10:04:21;;;;;;;8.60;4.60;;;;;;;32.45;41.16;101969.65;106724;1256;22550;-49
2023/08/16 10:07:11;;;;;;;8.00;4.50;;;;;;;32.49;40.95;101966.80;106578;1265;25363;-49
2023/08/16 10:09:43;;;;;;;5.10;4.60;;;;;;;32.50;40.81;101968.05;106865;1259;24200;-49
2023/08/16 10:12:10;;;;;;;7.40;4.50;;;;;;;32.51;40.79;101966.17;106825;1259;25337;-48
2023/08/16 10:14:38;;;;;;;5.00;4.60;;;;;;;32.52;40.79;101962.73;106516;1272;25378;-49
2023/08/16 10:17:08;;;;;;;4.80;4.40;;;;;;;32.54;41.07;101964.66;106833;1260;25331;-49
2023/08/16 10:19:38;;;;;;;5.30;4.50;;;;;;;32.57;41.19;101962.02;106905;1269;25445;-49
2023/08/16 10:22:23;;;;;;;6.30;4.10;;;;;;;32.62;41.05;101961.51;107074;1254;25515;-50
2023/08/16 10:24:53;;;;;;;4.70;4.20;;;;;;;32.67;40.56;101963.42;106824;1259;25318;-49
2023/08/16 10:27:21;;;;;;;7.00;4.30;;;;;;;32.67;40.22;101959.45;107085;1267;25328;-49
2023/08/16 10:29:48;;;;;;;4.50;4.10;;;;;;;32.67;40.18;101961.19;107135;1261;22523;-49
2023/08/16 10:32:16;;;;;;;4.30;3.90;;;;;;;32.70;40.22;101957.38;107166;1257;25312;-49
2023/08/16 10:34:43;;;;;;;4.70;4.20;;;;;;;32.74;40.24;101956.92;107031;1260;25394;-49
2023/08/16 10:37:11;;;;;;;4.10;3.70;;;;;;;32.78;40.00;101948.25;106849;1266;25349;-49
2023/08/16 10:39:38;;;;;;;4.40;4.00;;;;;;;32.84;39.65;101952.24;106746;1259;25318;-49
2023/08/16 10:42:06;;;;;;;4.60;4.10;;;;;;;32.87;39.80;101944.48;107081;1256;25355;-49
2023/08/16 10:44:34;;;;;;;5.50;3.80;;;;;;;32.93;39.31;101938.90;107137;1266;25347;-49
2023/08/16 10:47:01;;;;;;;7.00;3.50;;;;;;;32.98;38.55;101940.96;107055;1257;24185;-49
2023/08/16 10:49:37;;;;;;;4.40;3.90;;;;;;;33.02;38.76;101945.60;106566;1272;25480;-49
2023/08/16 10:52:04;;;;;;;5.00;3.70;;;;;;;33.07;38.77;101944.38;107125;1260;25331;-49
2023/08/16 10:54:32;;;;;;;4.20;3.30;;;;;;;33.13;38.55;101939.98;107239;1254;25525;-49
2023/08/16 10:57:05;;;;;;;4.70;3.80;;;;;;;33.19;38.41;101940.48;107032;1251;25359;-49
2023/08/16 10:59:42;;;;;;;6.10;3.40;;;;;;;33.26;37.97;101940.90;107099;1263;25334;-49
2023/08/16 11:02:15;;;;;;;5.40;3.70;;;;;;;33.32;38.23;101940.97;106852;1264;24372;-49
2023/08/16 11:04:43;;;;;;;4.20;3.80;;;;;;;33.40;38.01;101933.54;107191;1260;22664;-49
2023/08/16 11:07:12;;;;;;;4.80;3.90;;;;;;;33.45;37.96;101933.22;107077;1263;25331;-49
2023/08/16 11:09:42;;;;;;;3.50;3.20;;;;;;;33.49;37.85;101928.64;107015;1263;22606;-49
2023/08/16 11:12:09;;;;;;;4.40;3.90;;;;;;;33.54;37.95;101925.85;107013;1258;25302;-49
2023/08/16 11:14:36;;;;;;;3.80;3.50;;;;;;;33.58;37.72;101924.14;107147;1263;22523;-50
2023/08/16 11:17:03;;;;;;;4.20;3.80;;;;;;;33.62;37.62;101925.50;107163;1257;25350;-49
2023/08/16 11:19:30;;;;;;;4.60;3.80;;;;;;;33.66;37.15;101923.38;107156;1257;25405;-49
2023/08/16 11:22:01;;;;;;;4.70;4.10;;;;;;;33.67;37.05;101925.30;107039;1254;25347;-49